sensor_id;sensor_type;location;lat;lon;timestamp;P1;durP1;ratioP1;P2;durP2;ratioP2
1000;SDS011;489;47.806;12.858;2023-05-24T00:01:05;7.23;;;6.53;;
1000;SDS011;489;47.806;12.858;2023-05-24T00:03:07;6.67;;;6.07;;
1000;SDS011;489;47.806;12.858;2023-05-24T00:05:09;6.93;;;6.30;;
1000;SDS011;489;47.806;12.858;2023-05-24T00:07:11;6.67;;;6.17;;
1000;SDS011;489;47.806;12.858;2023-05-24T00:09:13;6.20;;;5.60;;
1000;SDS011;489;47.806;12.858;2023-05-24T00:11:16;6.33;;;5.73;;
1000;SDS011;489;47.806;12.858;2023-05-24T00:13:18;6.73;;;6.00;;
1000;SDS011;489;47.806;12.858;2023-05-24T00:15:20;6.63;;;5.97;;
1000;SDS011;489;47.806;12.858;2023-05-24T00:17:22;6.47;;;5.50;;
1000;SDS011;489;47.806;12.858;2023-05-24T00:19:24;5.63;;;5.13;;
1000;SDS011;489;47.806;12.858;2023-05-24T00:21:26;5.17;;;4.70;;
1000;SDS011;489;47.806;12.858;2023-05-24T00:23:28;5.00;;;4.50;;
1000;SDS011;489;47.806;12.858;2023-05-24T00:25:30;6.43;;;5.03;;
1000;SDS011;489;47.806;12.858;2023-05-24T00:27:33;6.10;;;5.07;;
1000;SDS011;489;47.806;12.858;2023-05-24T00:29:36;5.17;;;4.67;;
1000;SDS011;489;47.806;12.858;2023-05-24T00:31:38;5.40;;;4.90;;
1000;SDS011;489;47.806;12.858;2023-05-24T00:33:40;4.90;;;4.50;;
1000;SDS011;489;47.806;12.858;2023-05-24T00:35:41;4.93;;;4.53;;
1000;SDS011;489;47.806;12.858;2023-05-24T00:37:43;5.67;;;5.17;;
1000;SDS011;489;47.806;12.858;2023-05-24T00:39:45;5.23;;;4.83;;
1000;SDS011;489;47.806;12.858;2023-05-24T00:41:47;5.57;;;5.07;;
1000;SDS011;489;47.806;12.858;2023-05-24T00:43:51;5.53;;;4.97;;
1000;SDS011;489;47.806;12.858;2023-05-24T00:45:57;6.10;;;5.60;;
1000;SDS011;489;47.806;12.858;2023-05-24T00:48:12;5.10;;;4.60;;
1000;SDS011;489;47.806;12.858;2023-05-24T00:50:14;5.03;;;4.53;;
1000;SDS011;489;47.806;12.858;2023-05-24T00:52:17;5.13;;;4.73;;
1000;SDS011;489;47.806;12.858;2023-05-24T00:54:19;4.90;;;4.50;;
1000;SDS011;489;47.806;12.858;2023-05-24T00:56:21;5.07;;;4.67;;
1000;SDS011;489;47.806;12.858;2023-05-24T00:58:25;5.23;;;4.83;;
1000;SDS011;489;47.806;12.858;2023-05-24T01:00:31;5.33;;;4.87;;
1000;SDS011;489;47.806;12.858;2023-05-24T01:02:33;6.10;;;4.93;;
1000;SDS011;489;47.806;12.858;2023-05-24T01:04:37;5.17;;;4.77;;
1000;SDS011;489;47.806;12.858;2023-05-24T01:06:41;4.90;;;4.47;;
1000;SDS011;489;47.806;12.858;2023-05-24T01:11:16;5.80;;;5.23;;
1000;SDS011;489;47.806;12.858;2023-05-24T01:13:28;6.10;;;5.60;;
1000;SDS011;489;47.806;12.858;2023-05-24T01:15:36;6.10;;;5.40;;
1000;SDS011;489;47.806;12.858;2023-05-24T01:17:44;6.20;;;5.63;;
1000;SDS011;489;47.806;12.858;2023-05-24T01:19:53;6.43;;;5.77;;
1000;SDS011;489;47.806;12.858;2023-05-24T01:22:00;6.50;;;5.93;;
1000;SDS011;489;47.806;12.858;2023-05-24T01:24:13;5.90;;;5.40;;
1000;SDS011;489;47.806;12.858;2023-05-24T01:26:19;6.00;;;5.50;;
1000;SDS011;489;47.806;12.858;2023-05-24T01:28:33;6.77;;;6.17;;
1000;SDS011;489;47.806;12.858;2023-05-24T01:30:35;7.00;;;6.30;;
1000;SDS011;489;47.806;12.858;2023-05-24T01:32:38;6.83;;;6.27;;
1000;SDS011;489;47.806;12.858;2023-05-24T01:34:40;6.93;;;6.27;;
1000;SDS011;489;47.806;12.858;2023-05-24T01:36:45;5.90;;;5.40;;
1000;SDS011;489;47.806;12.858;2023-05-24T01:38:47;6.40;;;5.80;;
1000;SDS011;489;47.806;12.858;2023-05-24T01:40:51;6.10;;;5.60;;
1000;SDS011;489;47.806;12.858;2023-05-24T01:42:58;7.93;;;6.43;;
1000;SDS011;489;47.806;12.858;2023-05-24T01:45:07;6.30;;;5.70;;
1000;SDS011;489;47.806;12.858;2023-05-24T01:47:17;5.70;;;5.20;;
1000;SDS011;489;47.806;12.858;2023-05-24T01:49:25;6.30;;;5.70;;
1000;SDS011;489;47.806;12.858;2023-05-24T01:51:29;5.90;;;5.40;;
1000;SDS011;489;47.806;12.858;2023-05-24T01:53:38;6.70;;;6.00;;
1000;SDS011;489;47.806;12.858;2023-05-24T01:55:47;6.90;;;6.37;;
1000;SDS011;489;47.806;12.858;2023-05-24T01:57:49;7.10;;;6.40;;
1000;SDS011;489;47.806;12.858;2023-05-24T01:59:52;7.07;;;6.47;;
1000;SDS011;489;47.806;12.858;2023-05-24T02:01:56;7.00;;;6.20;;
1000;SDS011;489;47.806;12.858;2023-05-24T02:03:58;6.87;;;6.27;;
1000;SDS011;489;47.806;12.858;2023-05-24T02:06:01;7.37;;;6.67;;
1000;SDS011;489;47.806;12.858;2023-05-24T02:08:03;7.10;;;6.50;;
1000;SDS011;489;47.806;12.858;2023-05-24T02:10:06;7.90;;;6.33;;
1000;SDS011;489;47.806;12.858;2023-05-24T02:12:09;7.60;;;6.90;;
1000;SDS011;489;47.806;12.858;2023-05-24T02:14:13;7.07;;;6.47;;
1000;SDS011;489;47.806;12.858;2023-05-24T02:16:17;7.70;;;7.00;;
1000;SDS011;489;47.806;12.858;2023-05-24T02:18:20;7.60;;;6.90;;
1000;SDS011;489;47.806;12.858;2023-05-24T02:20:22;7.80;;;7.10;;
1000;SDS011;489;47.806;12.858;2023-05-24T02:22:24;7.67;;;6.90;;
1000;SDS011;489;47.806;12.858;2023-05-24T02:24:26;7.43;;;6.80;;
1000;SDS011;489;47.806;12.858;2023-05-24T02:26:28;7.97;;;7.13;;
1000;SDS011;489;47.806;12.858;2023-05-24T02:28:30;8.20;;;7.40;;
1000;SDS011;489;47.806;12.858;2023-05-24T02:30:32;7.63;;;6.93;;
1000;SDS011;489;47.806;12.858;2023-05-24T02:32:34;7.67;;;6.97;;
1000;SDS011;489;47.806;12.858;2023-05-24T02:34:38;6.43;;;5.93;;
1000;SDS011;489;47.806;12.858;2023-05-24T02:36:40;6.97;;;6.37;;
1000;SDS011;489;47.806;12.858;2023-05-24T02:38:42;7.60;;;7.00;;
1000;SDS011;489;47.806;12.858;2023-05-24T02:40:44;6.87;;;6.27;;
1000;SDS011;489;47.806;12.858;2023-05-24T02:42:46;7.23;;;6.53;;
1000;SDS011;489;47.806;12.858;2023-05-24T02:44:48;6.80;;;6.20;;
1000;SDS011;489;47.806;12.858;2023-05-24T02:46:51;7.57;;;6.87;;
1000;SDS011;489;47.806;12.858;2023-05-24T02:48:53;7.50;;;6.80;;
1000;SDS011;489;47.806;12.858;2023-05-24T02:50:57;8.47;;;7.60;;
1000;SDS011;489;47.806;12.858;2023-05-24T02:53:02;8.03;;;7.33;;
1000;SDS011;489;47.806;12.858;2023-05-24T02:55:05;7.97;;;7.20;;
1000;SDS011;489;47.806;12.858;2023-05-24T02:57:08;6.83;;;6.23;;
1000;SDS011;489;47.806;12.858;2023-05-24T02:59:12;8.07;;;7.37;;
1000;SDS011;489;47.806;12.858;2023-05-24T03:01:15;7.93;;;7.23;;
1000;SDS011;489;47.806;12.858;2023-05-24T03:03:17;8.10;;;7.40;;
1000;SDS011;489;47.806;12.858;2023-05-24T03:05:19;7.80;;;7.10;;
1000;SDS011;489;47.806;12.858;2023-05-24T03:07:23;6.87;;;6.33;;
1000;SDS011;489;47.806;12.858;2023-05-24T03:09:25;8.30;;;7.53;;
1000;SDS011;489;47.806;12.858;2023-05-24T03:11:27;7.87;;;7.07;;
1000;SDS011;489;47.806;12.858;2023-05-24T03:13:31;8.43;;;7.63;;
1000;SDS011;489;47.806;12.858;2023-05-24T03:15:33;8.43;;;7.50;;
1000;SDS011;489;47.806;12.858;2023-05-24T03:17:35;8.43;;;7.63;;
1000;SDS011;489;47.806;12.858;2023-05-24T03:19:37;7.80;;;7.07;;
1000;SDS011;489;47.806;12.858;2023-05-24T03:21:39;8.63;;;7.83;;
1000;SDS011;489;47.806;12.858;2023-05-24T03:23:43;8.37;;;7.67;;
1000;SDS011;489;47.806;12.858;2023-05-24T03:25:45;9.93;;;8.77;;
1000;SDS011;489;47.806;12.858;2023-05-24T03:27:47;9.20;;;8.40;;
1000;SDS011;489;47.806;12.858;2023-05-24T03:29:49;7.97;;;7.27;;
1000;SDS011;489;47.806;12.858;2023-05-24T03:31:55;8.63;;;7.80;;
1000;SDS011;489;47.806;12.858;2023-05-24T03:33:58;7.60;;;6.90;;
1000;SDS011;489;47.806;12.858;2023-05-24T03:36:20;8.47;;;7.67;;
1000;SDS011;489;47.806;12.858;2023-05-24T03:38:22;8.60;;;7.80;;
1000;SDS011;489;47.806;12.858;2023-05-24T03:40:26;8.93;;;8.10;;
1000;SDS011;489;47.806;12.858;2023-05-24T03:42:36;8.50;;;7.70;;
1000;SDS011;489;47.806;12.858;2023-05-24T03:44:40;7.60;;;6.80;;
1000;SDS011;489;47.806;12.858;2023-05-24T03:46:43;8.40;;;7.70;;
1000;SDS011;489;47.806;12.858;2023-05-24T03:48:45;8.47;;;7.67;;
1000;SDS011;489;47.806;12.858;2023-05-24T03:50:48;8.83;;;7.93;;
1000;SDS011;489;47.806;12.858;2023-05-24T03:52:51;8.40;;;7.60;;
1000;SDS011;489;47.806;12.858;2023-05-24T03:54:53;8.77;;;7.87;;
1000;SDS011;489;47.806;12.858;2023-05-24T03:56:56;8.10;;;7.30;;
1000;SDS011;489;47.806;12.858;2023-05-24T03:58:58;8.37;;;7.60;;
1000;SDS011;489;47.806;12.858;2023-05-24T04:01:03;8.27;;;7.47;;
1000;SDS011;489;47.806;12.858;2023-05-24T04:03:05;8.73;;;7.93;;
1000;SDS011;489;47.806;12.858;2023-05-24T04:05:09;9.20;;;8.23;;
1000;SDS011;489;47.806;12.858;2023-05-24T04:07:12;8.23;;;7.43;;
1000;SDS011;489;47.806;12.858;2023-05-24T04:09:15;8.83;;;8.00;;
1000;SDS011;489;47.806;12.858;2023-05-24T04:11:17;8.33;;;7.50;;
1000;SDS011;489;47.806;12.858;2023-05-24T04:13:21;8.10;;;7.40;;
1000;SDS011;489;47.806;12.858;2023-05-24T04:15:23;8.10;;;7.33;;
1000;SDS011;489;47.806;12.858;2023-05-24T04:17:25;8.63;;;7.87;;
1000;SDS011;489;47.806;12.858;2023-05-24T04:19:28;7.70;;;7.00;;
1000;SDS011;489;47.806;12.858;2023-05-24T04:21:30;8.10;;;7.40;;
1000;SDS011;489;47.806;12.858;2023-05-24T04:23:32;12.90;;;8.30;;
1000;SDS011;489;47.806;12.858;2023-05-24T04:25:35;8.07;;;7.27;;
1000;SDS011;489;47.806;12.858;2023-05-24T04:27:38;7.47;;;6.77;;
1000;SDS011;489;47.806;12.858;2023-05-24T04:29:43;8.10;;;7.30;;
1000;SDS011;489;47.806;12.858;2023-05-24T04:31:49;8.10;;;7.30;;
1000;SDS011;489;47.806;12.858;2023-05-24T04:33:51;7.90;;;7.20;;
1000;SDS011;489;47.806;12.858;2023-05-24T04:35:54;8.77;;;7.97;;
1000;SDS011;489;47.806;12.858;2023-05-24T04:37:56;7.77;;;7.07;;
1000;SDS011;489;47.806;12.858;2023-05-24T04:39:59;7.90;;;7.10;;
1000;SDS011;489;47.806;12.858;2023-05-24T04:42:01;7.43;;;6.83;;
1000;SDS011;489;47.806;12.858;2023-05-24T04:44:03;8.43;;;7.50;;
1000;SDS011;489;47.806;12.858;2023-05-24T04:46:08;8.10;;;7.30;;
1000;SDS011;489;47.806;12.858;2023-05-24T04:48:10;8.67;;;7.13;;
1000;SDS011;489;47.806;12.858;2023-05-24T04:50:12;8.03;;;7.30;;
1000;SDS011;489;47.806;12.858;2023-05-24T04:52:14;8.80;;;7.90;;
1000;SDS011;489;47.806;12.858;2023-05-24T04:54:16;9.80;;;8.07;;
1000;SDS011;489;47.806;12.858;2023-05-24T04:56:18;8.20;;;7.50;;
1000;SDS011;489;47.806;12.858;2023-05-24T04:58:20;9.57;;;8.63;;
1000;SDS011;489;47.806;12.858;2023-05-24T05:00:22;7.80;;;7.10;;
1000;SDS011;489;47.806;12.858;2023-05-24T05:02:25;7.43;;;6.83;;
1000;SDS011;489;47.806;12.858;2023-05-24T05:04:28;8.87;;;8.00;;
1000;SDS011;489;47.806;12.858;2023-05-24T05:06:30;7.93;;;7.13;;
1000;SDS011;489;47.806;12.858;2023-05-24T05:08:34;8.23;;;7.23;;
1000;SDS011;489;47.806;12.858;2023-05-24T05:10:36;8.93;;;8.03;;
1000;SDS011;489;47.806;12.858;2023-05-24T05:12:38;8.47;;;7.67;;
1000;SDS011;489;47.806;12.858;2023-05-24T05:14:40;7.73;;;7.03;;
1000;SDS011;489;47.806;12.858;2023-05-24T05:16:42;8.30;;;7.50;;
1000;SDS011;489;47.806;12.858;2023-05-24T05:18:46;8.13;;;7.43;;
1000;SDS011;489;47.806;12.858;2023-05-24T05:20:48;7.90;;;7.10;;
1000;SDS011;489;47.806;12.858;2023-05-24T05:22:51;8.10;;;7.30;;
1000;SDS011;489;47.806;12.858;2023-05-24T05:24:52;9.30;;;8.40;;
1000;SDS011;489;47.806;12.858;2023-05-24T05:26:54;8.00;;;7.27;;
1000;SDS011;489;47.806;12.858;2023-05-24T05:28:56;7.87;;;7.17;;
1000;SDS011;489;47.806;12.858;2023-05-24T05:30:58;7.07;;;6.47;;
1000;SDS011;489;47.806;12.858;2023-05-24T05:33:00;7.40;;;6.70;;
1000;SDS011;489;47.806;12.858;2023-05-24T05:35:06;7.13;;;6.53;;
1000;SDS011;489;47.806;12.858;2023-05-24T05:37:09;7.23;;;6.53;;
1000;SDS011;489;47.806;12.858;2023-05-24T05:39:11;7.37;;;6.67;;
1000;SDS011;489;47.806;12.858;2023-05-24T05:41:14;8.50;;;7.20;;
1000;SDS011;489;47.806;12.858;2023-05-24T05:43:16;7.37;;;6.70;;
1000;SDS011;489;47.806;12.858;2023-05-24T05:45:18;7.63;;;6.93;;
1000;SDS011;489;47.806;12.858;2023-05-24T05:47:20;8.00;;;7.13;;
1000;SDS011;489;47.806;12.858;2023-05-24T05:49:21;7.57;;;6.90;;
1000;SDS011;489;47.806;12.858;2023-05-24T05:51:25;8.03;;;7.23;;
1000;SDS011;489;47.806;12.858;2023-05-24T05:53:27;7.87;;;7.13;;
1000;SDS011;489;47.806;12.858;2023-05-24T05:55:29;7.93;;;7.07;;
1000;SDS011;489;47.806;12.858;2023-05-24T05:57:31;7.20;;;6.50;;
1000;SDS011;489;47.806;12.858;2023-05-24T05:59:32;7.23;;;6.60;;
1000;SDS011;489;47.806;12.858;2023-05-24T06:01:38;7.67;;;6.97;;
1000;SDS011;489;47.806;12.858;2023-05-24T06:03:40;6.90;;;6.27;;
1000;SDS011;489;47.806;12.858;2023-05-24T06:06:01;8.23;;;6.60;;
1000;SDS011;489;47.806;12.858;2023-05-24T06:08:05;7.70;;;7.00;;
1000;SDS011;489;47.806;12.858;2023-05-24T06:10:07;8.53;;;6.70;;
1000;SDS011;489;47.806;12.858;2023-05-24T06:12:10;7.90;;;7.10;;
1000;SDS011;489;47.806;12.858;2023-05-24T06:14:12;7.83;;;7.03;;
1000;SDS011;489;47.806;12.858;2023-05-24T06:16:18;7.57;;;6.80;;
1000;SDS011;489;47.806;12.858;2023-05-24T06:18:21;9.17;;;8.27;;
1000;SDS011;489;47.806;12.858;2023-05-24T06:20:23;8.10;;;7.37;;
1000;SDS011;489;47.806;12.858;2023-05-24T06:22:25;17.03;;;15.73;;
1000;SDS011;489;47.806;12.858;2023-05-24T06:24:30;15.47;;;14.27;;
1000;SDS011;489;47.806;12.858;2023-05-24T06:26:34;9.67;;;8.83;;
1000;SDS011;489;47.806;12.858;2023-05-24T06:28:39;8.37;;;7.57;;
1000;SDS011;489;47.806;12.858;2023-05-24T06:30:41;7.80;;;7.10;;
1000;SDS011;489;47.806;12.858;2023-05-24T06:32:44;7.80;;;7.00;;
1000;SDS011;489;47.806;12.858;2023-05-24T06:34:45;7.77;;;7.07;;
1000;SDS011;489;47.806;12.858;2023-05-24T06:37:09;8.27;;;7.40;;
1000;SDS011;489;47.806;12.858;2023-05-24T06:39:14;11.63;;;7.47;;
1000;SDS011;489;47.806;12.858;2023-05-24T06:41:18;7.87;;;7.07;;
1000;SDS011;489;47.806;12.858;2023-05-24T06:43:20;8.37;;;7.60;;
1000;SDS011;489;47.806;12.858;2023-05-24T06:45:22;8.17;;;7.10;;
1000;SDS011;489;47.806;12.858;2023-05-24T06:47:24;7.80;;;7.10;;
1000;SDS011;489;47.806;12.858;2023-05-24T06:49:26;8.00;;;7.17;;
1000;SDS011;489;47.806;12.858;2023-05-24T06:51:29;8.50;;;7.60;;
1000;SDS011;489;47.806;12.858;2023-05-24T06:53:33;7.80;;;7.00;;
1000;SDS011;489;47.806;12.858;2023-05-24T06:55:37;8.13;;;7.23;;
1000;SDS011;489;47.806;12.858;2023-05-24T06:57:41;9.27;;;6.97;;
1000;SDS011;489;47.806;12.858;2023-05-24T06:59:43;7.30;;;6.60;;
1000;SDS011;489;47.806;12.858;2023-05-24T07:01:45;8.60;;;7.70;;
1000;SDS011;489;47.806;12.858;2023-05-24T07:03:48;7.53;;;6.80;;
1000;SDS011;489;47.806;12.858;2023-05-24T07:05:51;8.40;;;7.60;;
1000;SDS011;489;47.806;12.858;2023-05-24T07:07:52;7.93;;;7.13;;
1000;SDS011;489;47.806;12.858;2023-05-24T07:09:54;7.87;;;7.17;;
1000;SDS011;489;47.806;12.858;2023-05-24T07:11:56;8.13;;;7.33;;
1000;SDS011;489;47.806;12.858;2023-05-24T07:14:00;7.50;;;6.80;;
1000;SDS011;489;47.806;12.858;2023-05-24T07:16:01;8.53;;;7.73;;
1000;SDS011;489;47.806;12.858;2023-05-24T07:18:04;7.53;;;6.70;;
1000;SDS011;489;47.806;12.858;2023-05-24T07:20:06;7.53;;;6.83;;
1000;SDS011;489;47.806;12.858;2023-05-24T07:22:10;7.93;;;7.20;;
1000;SDS011;489;47.806;12.858;2023-05-24T07:24:12;7.43;;;6.73;;
1000;SDS011;489;47.806;12.858;2023-05-24T07:26:14;8.07;;;7.13;;
1000;SDS011;489;47.806;12.858;2023-05-24T07:28:17;6.87;;;6.23;;
1000;SDS011;489;47.806;12.858;2023-05-24T07:30:21;7.10;;;6.30;;
1000;SDS011;489;47.806;12.858;2023-05-24T07:32:23;7.90;;;7.10;;
1000;SDS011;489;47.806;12.858;2023-05-24T07:34:26;7.83;;;7.03;;
1000;SDS011;489;47.806;12.858;2023-05-24T07:36:29;7.00;;;5.83;;
1000;SDS011;489;47.806;12.858;2023-05-24T07:38:32;6.53;;;5.93;;
1000;SDS011;489;47.806;12.858;2023-05-24T07:40:35;7.17;;;6.57;;
1000;SDS011;489;47.806;12.858;2023-05-24T07:42:37;7.47;;;6.70;;
1000;SDS011;489;47.806;12.858;2023-05-24T07:44:58;7.33;;;6.23;;
1000;SDS011;489;47.806;12.858;2023-05-24T07:47:01;7.37;;;6.30;;
1000;SDS011;489;47.806;12.858;2023-05-24T07:49:03;6.50;;;5.90;;
1000;SDS011;489;47.806;12.858;2023-05-24T07:51:06;6.80;;;6.10;;
1000;SDS011;489;47.806;12.858;2023-05-24T07:53:08;7.07;;;6.40;;
1000;SDS011;489;47.806;12.858;2023-05-24T07:55:10;7.73;;;6.93;;
1000;SDS011;489;47.806;12.858;2023-05-24T07:57:12;9.20;;;8.03;;
1000;SDS011;489;47.806;12.858;2023-05-24T07:59:14;8.80;;;7.90;;
1000;SDS011;489;47.806;12.858;2023-05-24T08:01:16;8.23;;;7.43;;
1000;SDS011;489;47.806;12.858;2023-05-24T08:03:20;8.30;;;7.50;;
1000;SDS011;489;47.806;12.858;2023-05-24T08:05:24;8.30;;;7.50;;
1000;SDS011;489;47.806;12.858;2023-05-24T08:07:26;9.43;;;8.50;;
1000;SDS011;489;47.806;12.858;2023-05-24T08:09:29;8.13;;;7.33;;
1000;SDS011;489;47.806;12.858;2023-05-24T08:11:35;9.07;;;8.27;;
1000;SDS011;489;47.806;12.858;2023-05-24T08:13:39;9.43;;;8.53;;
1000;SDS011;489;47.806;12.858;2023-05-24T08:15:40;9.90;;;8.90;;
1000;SDS011;489;47.806;12.858;2023-05-24T08:17:44;10.50;;;9.00;;
1000;SDS011;489;47.806;12.858;2023-05-24T08:19:47;9.43;;;8.50;;
1000;SDS011;489;47.806;12.858;2023-05-24T08:21:49;9.70;;;8.77;;
1000;SDS011;489;47.806;12.858;2023-05-24T08:23:51;8.93;;;8.07;;
1000;SDS011;489;47.806;12.858;2023-05-24T08:25:54;9.27;;;8.27;;
1000;SDS011;489;47.806;12.858;2023-05-24T08:27:56;8.60;;;7.77;;
1000;SDS011;489;47.806;12.858;2023-05-24T08:29:57;9.00;;;8.10;;
1000;SDS011;489;47.806;12.858;2023-05-24T08:32:18;9.10;;;8.20;;
1000;SDS011;489;47.806;12.858;2023-05-24T08:34:20;9.13;;;8.23;;
1000;SDS011;489;47.806;12.858;2023-05-24T08:36:23;8.03;;;7.33;;
1000;SDS011;489;47.806;12.858;2023-05-24T08:38:25;8.83;;;8.03;;
1000;SDS011;489;47.806;12.858;2023-05-24T08:40:28;9.40;;;8.00;;
1000;SDS011;489;47.806;12.858;2023-05-24T08:42:30;8.43;;;7.63;;
1000;SDS011;489;47.806;12.858;2023-05-24T08:44:34;9.13;;;8.23;;
1000;SDS011;489;47.806;12.858;2023-05-24T08:46:39;8.87;;;7.97;;
1000;SDS011;489;47.806;12.858;2023-05-24T08:48:43;10.73;;;8.50;;
1000;SDS011;489;47.806;12.858;2023-05-24T08:50:46;9.20;;;8.23;;
1000;SDS011;489;47.806;12.858;2023-05-24T08:52:49;9.63;;;8.73;;
1000;SDS011;489;47.806;12.858;2023-05-24T08:54:52;9.27;;;8.37;;
1000;SDS011;489;47.806;12.858;2023-05-24T08:56:54;9.70;;;8.77;;
1000;SDS011;489;47.806;12.858;2023-05-24T08:58:56;9.70;;;8.63;;
1000;SDS011;489;47.806;12.858;2023-05-24T09:00:58;9.43;;;8.53;;
1000;SDS011;489;47.806;12.858;2023-05-24T09:03:01;9.13;;;8.23;;
1000;SDS011;489;47.806;12.858;2023-05-24T09:05:04;9.23;;;8.23;;
1000;SDS011;489;47.806;12.858;2023-05-24T09:07:28;10.40;;;9.30;;
1000;SDS011;489;47.806;12.858;2023-05-24T09:09:32;10.10;;;9.20;;
1000;SDS011;489;47.806;12.858;2023-05-24T09:11:36;9.30;;;8.40;;
1000;SDS011;489;47.806;12.858;2023-05-24T09:13:40;10.00;;;9.00;;
1000;SDS011;489;47.806;12.858;2023-05-24T09:15:42;9.77;;;8.87;;
1000;SDS011;489;47.806;12.858;2023-05-24T09:17:44;9.50;;;8.60;;
1000;SDS011;489;47.806;12.858;2023-05-24T09:19:49;9.77;;;8.87;;
1000;SDS011;489;47.806;12.858;2023-05-24T09:21:52;9.53;;;8.53;;
1000;SDS011;489;47.806;12.858;2023-05-24T09:23:54;9.33;;;8.43;;
1000;SDS011;489;47.806;12.858;2023-05-24T09:25:57;9.27;;;8.37;;
1000;SDS011;489;47.806;12.858;2023-05-24T09:28:08;9.30;;;8.40;;
1000;SDS011;489;47.806;12.858;2023-05-24T09:30:10;9.60;;;8.63;;
1000;SDS011;489;47.806;12.858;2023-05-24T09:32:12;10.40;;;9.30;;
1000;SDS011;489;47.806;12.858;2023-05-24T09:34:17;10.07;;;9.07;;
1000;SDS011;489;47.806;12.858;2023-05-24T09:36:19;9.93;;;9.03;;
1000;SDS011;489;47.806;12.858;2023-05-24T09:38:21;9.87;;;8.97;;
1000;SDS011;489;47.806;12.858;2023-05-24T09:40:25;9.60;;;8.80;;
1000;SDS011;489;47.806;12.858;2023-05-24T09:42:29;9.77;;;8.87;;
1000;SDS011;489;47.806;12.858;2023-05-24T09:44:31;8.67;;;7.97;;
1000;SDS011;489;47.806;12.858;2023-05-24T09:46:36;9.57;;;8.67;;
1000;SDS011;489;47.806;12.858;2023-05-24T09:48:39;8.87;;;8.00;;
1000;SDS011;489;47.806;12.858;2023-05-24T09:50:41;9.70;;;8.80;;
1000;SDS011;489;47.806;12.858;2023-05-24T09:52:44;8.83;;;8.03;;
1000;SDS011;489;47.806;12.858;2023-05-24T09:54:46;9.40;;;8.50;;
1000;SDS011;489;47.806;12.858;2023-05-24T09:56:49;9.23;;;8.43;;
1000;SDS011;489;47.806;12.858;2023-05-24T09:58:53;8.93;;;8.03;;
1000;SDS011;489;47.806;12.858;2023-05-24T10:01:02;9.70;;;8.70;;
1000;SDS011;489;47.806;12.858;2023-05-24T10:03:06;9.60;;;8.70;;
1000;SDS011;489;47.806;12.858;2023-05-24T10:05:10;10.10;;;9.10;;
1000;SDS011;489;47.806;12.858;2023-05-24T10:07:12;10.60;;;9.50;;
1000;SDS011;489;47.806;12.858;2023-05-24T10:09:15;10.63;;;9.63;;
1000;SDS011;489;47.806;12.858;2023-05-24T10:11:17;9.90;;;9.00;;
1000;SDS011;489;47.806;12.858;2023-05-24T10:13:20;10.30;;;9.40;;
1000;SDS011;489;47.806;12.858;2023-05-24T10:15:24;11.00;;;9.90;;
1000;SDS011;489;47.806;12.858;2023-05-24T10:17:26;10.27;;;9.23;;
1000;SDS011;489;47.806;12.858;2023-05-24T10:19:29;10.97;;;9.87;;
1000;SDS011;489;47.806;12.858;2023-05-24T10:21:31;11.77;;;10.60;;
1000;SDS011;489;47.806;12.858;2023-05-24T10:23:33;11.20;;;10.00;;
1000;SDS011;489;47.806;12.858;2023-05-24T10:25:37;10.60;;;9.50;;
1000;SDS011;489;47.806;12.858;2023-05-24T10:27:44;10.17;;;9.17;;
1000;SDS011;489;47.806;12.858;2023-05-24T10:29:47;10.47;;;9.47;;
1000;SDS011;489;47.806;12.858;2023-05-24T10:31:57;10.73;;;9.73;;
1000;SDS011;489;47.806;12.858;2023-05-24T10:34:00;10.47;;;9.47;;
1000;SDS011;489;47.806;12.858;2023-05-24T10:36:04;11.00;;;9.80;;
1000;SDS011;489;47.806;12.858;2023-05-24T10:38:08;11.30;;;10.20;;
1000;SDS011;489;47.806;12.858;2023-05-24T10:40:15;12.40;;;10.70;;
1000;SDS011;489;47.806;12.858;2023-05-24T10:42:19;10.47;;;9.47;;
1000;SDS011;489;47.806;12.858;2023-05-24T10:44:21;11.27;;;10.00;;
1000;SDS011;489;47.806;12.858;2023-05-24T10:46:23;9.20;;;8.30;;
1000;SDS011;489;47.806;12.858;2023-05-24T10:48:36;10.50;;;9.43;;
1000;SDS011;489;47.806;12.858;2023-05-24T10:50:39;10.57;;;9.57;;
1000;SDS011;489;47.806;12.858;2023-05-24T10:52:42;11.90;;;10.70;;
1000;SDS011;489;47.806;12.858;2023-05-24T10:55:02;9.90;;;8.80;;
1000;SDS011;489;47.806;12.858;2023-05-24T10:57:05;10.73;;;9.70;;
1000;SDS011;489;47.806;12.858;2023-05-24T10:59:07;10.50;;;9.43;;
1000;SDS011;489;47.806;12.858;2023-05-24T11:01:12;9.67;;;8.77;;
1000;SDS011;489;47.806;12.858;2023-05-24T11:03:14;10.07;;;9.07;;
1000;SDS011;489;47.806;12.858;2023-05-24T11:05:24;10.90;;;9.80;;
1000;SDS011;489;47.806;12.858;2023-05-24T11:07:26;11.47;;;10.27;;
1000;SDS011;489;47.806;12.858;2023-05-24T11:09:28;10.93;;;9.87;;
1000;SDS011;489;47.806;12.858;2023-05-24T11:11:30;11.00;;;9.90;;
1000;SDS011;489;47.806;12.858;2023-05-24T11:13:33;9.90;;;9.00;;
1000;SDS011;489;47.806;12.858;2023-05-24T11:15:35;10.13;;;9.13;;
1000;SDS011;489;47.806;12.858;2023-05-24T11:20:11;9.57;;;8.67;;
1000;SDS011;489;47.806;12.858;2023-05-24T11:22:16;8.83;;;8.03;;
1000;SDS011;489;47.806;12.858;2023-05-24T11:24:19;9.67;;;8.67;;
1000;SDS011;489;47.806;12.858;2023-05-24T11:26:21;9.60;;;8.70;;
1000;SDS011;489;47.806;12.858;2023-05-24T11:28:23;9.30;;;8.40;;
1000;SDS011;489;47.806;12.858;2023-05-24T11:30:26;10.70;;;9.60;;
1000;SDS011;489;47.806;12.858;2023-05-24T11:32:28;10.67;;;9.60;;
1000;SDS011;489;47.806;12.858;2023-05-24T11:34:30;10.43;;;9.43;;
1000;SDS011;489;47.806;12.858;2023-05-24T11:36:32;10.00;;;9.00;;
1000;SDS011;489;47.806;12.858;2023-05-24T11:38:37;9.27;;;8.30;;
1000;SDS011;489;47.806;12.858;2023-05-24T11:40:39;9.10;;;8.20;;
1000;SDS011;489;47.806;12.858;2023-05-24T11:42:43;10.10;;;9.20;;
1000;SDS011;489;47.806;12.858;2023-05-24T11:44:48;9.67;;;8.77;;
1000;SDS011;489;47.806;12.858;2023-05-24T11:46:55;9.23;;;8.33;;
1000;SDS011;489;47.806;12.858;2023-05-24T11:49:16;9.73;;;8.73;;
1000;SDS011;489;47.806;12.858;2023-05-24T11:51:24;10.23;;;9.23;;
1000;SDS011;489;47.806;12.858;2023-05-24T11:53:26;10.57;;;9.47;;
1000;SDS011;489;47.806;12.858;2023-05-24T11:55:29;11.33;;;8.90;;
1000;SDS011;489;47.806;12.858;2023-05-24T11:57:35;9.90;;;8.90;;
1000;SDS011;489;47.806;12.858;2023-05-24T11:59:39;10.03;;;9.03;;
1000;SDS011;489;47.806;12.858;2023-05-24T12:01:41;9.27;;;8.37;;
1000;SDS011;489;47.806;12.858;2023-05-24T12:03:44;8.70;;;7.90;;
1000;SDS011;489;47.806;12.858;2023-05-24T12:05:47;9.10;;;8.30;;
1000;SDS011;489;47.806;12.858;2023-05-24T12:07:58;9.00;;;8.10;;
1000;SDS011;489;47.806;12.858;2023-05-24T12:10:04;9.37;;;8.50;;
1000;SDS011;489;47.806;12.858;2023-05-24T12:12:08;10.83;;;9.80;;
1000;SDS011;489;47.806;12.858;2023-05-24T12:14:11;9.47;;;8.57;;
1000;SDS011;489;47.806;12.858;2023-05-24T12:16:13;8.93;;;8.13;;
1000;SDS011;489;47.806;12.858;2023-05-24T12:18:18;9.83;;;8.80;;
1000;SDS011;489;47.806;12.858;2023-05-24T12:20:21;8.90;;;8.10;;
1000;SDS011;489;47.806;12.858;2023-05-24T12:22:26;11.00;;;9.83;;
1000;SDS011;489;47.806;12.858;2023-05-24T12:24:52;9.20;;;8.20;;
1000;SDS011;489;47.806;12.858;2023-05-24T12:26:57;10.30;;;9.30;;
1000;SDS011;489;47.806;12.858;2023-05-24T12:29:02;9.40;;;8.50;;
1000;SDS011;489;47.806;12.858;2023-05-24T12:31:04;10.20;;;9.20;;
1000;SDS011;489;47.806;12.858;2023-05-24T12:33:08;10.00;;;9.00;;
1000;SDS011;489;47.806;12.858;2023-05-24T12:35:10;9.53;;;8.57;;
1000;SDS011;489;47.806;12.858;2023-05-24T12:37:13;9.93;;;8.93;;
1000;SDS011;489;47.806;12.858;2023-05-24T12:39:16;9.03;;;8.23;;
1000;SDS011;489;47.806;12.858;2023-05-24T12:41:19;9.43;;;8.53;;
1000;SDS011;489;47.806;12.858;2023-05-24T12:43:21;8.70;;;7.80;;
1000;SDS011;489;47.806;12.858;2023-05-24T12:45:25;9.80;;;8.80;;
1000;SDS011;489;47.806;12.858;2023-05-24T12:47:27;8.70;;;7.90;;
1000;SDS011;489;47.806;12.858;2023-05-24T12:49:30;9.23;;;8.33;;
1000;SDS011;489;47.806;12.858;2023-05-24T12:51:32;9.70;;;8.37;;